createdAt,value
2019-05-06T00:00:00.242Z,1005.79
2019-05-06T00:01:00.258Z,1005.78
2019-05-06T00:02:00.221Z,1005.69
2019-05-06T00:03:00.227Z,1005.71
2019-05-06T00:04:01.000Z,1005.76
2019-05-06T00:05:00.183Z,1005.72
2019-05-06T00:06:00.179Z,1005.76
2019-05-06T00:07:00.183Z,1005.76
2019-05-06T00:08:00.170Z,1005.71
2019-05-06T00:09:00.139Z,1005.69
2019-05-06T00:10:00.135Z,1005.72
2019-05-06T00:11:00.119Z,1005.73
2019-05-06T00:12:00.111Z,1005.76
2019-05-06T00:13:00.114Z,1005.74
2019-05-06T00:14:00.087Z,1005.75
2019-05-06T00:15:00.084Z,1005.75
2019-05-06T00:16:00.069Z,1005.73
2019-05-06T00:17:00.051Z,1005.73
2019-05-06T00:18:00.043Z,1005.72
2019-05-06T00:19:00.039Z,1005.74
2019-05-06T00:20:00.047Z,1005.77
2019-05-06T00:21:00.007Z,1005.72
2019-05-06T00:21:59.999Z,1005.75
2019-05-06T00:22:59.984Z,1005.73
2019-05-06T00:24:00.002Z,1005.71
2019-05-06T00:24:59.968Z,1005.72
2019-05-06T00:25:59.993Z,1005.69
2019-05-06T00:26:59.943Z,1005.70
2019-05-06T00:27:59.927Z,1005.70
2019-05-06T00:28:59.935Z,1005.70
2019-05-06T00:29:59.907Z,1005.67
2019-05-06T00:31:10.375Z,1005.70
2019-05-06T00:32:00.903Z,1005.71
2019-05-06T00:32:59.880Z,1005.72
2019-05-06T00:33:59.862Z,1005.74
2019-05-06T00:34:59.854Z,1005.77
2019-05-06T00:36:00.537Z,1005.66
2019-05-06T00:36:59.855Z,1005.69
2019-05-06T00:37:59.847Z,1005.66
2019-05-06T00:38:59.838Z,1005.66
2019-05-06T00:39:59.795Z,1005.66
2019-05-06T00:40:59.787Z,1005.57
2019-05-06T00:41:59.779Z,1005.67
2019-05-06T00:42:59.763Z,1005.66
2019-05-06T00:43:59.768Z,1005.65
2019-05-06T00:44:59.751Z,1005.67
2019-05-06T00:45:59.743Z,1005.66
2019-05-06T00:46:59.722Z,1005.66
2019-05-06T00:47:59.718Z,1005.66
2019-05-06T00:48:59.711Z,1005.66
2019-05-06T00:49:59.706Z,1005.69
2019-05-06T00:50:59.678Z,1005.63
2019-05-06T00:51:59.667Z,1005.64
2019-05-06T00:52:59.655Z,1005.63
2019-05-06T00:53:59.639Z,1005.67
2019-05-06T00:54:59.635Z,1005.72
2019-05-06T00:55:59.660Z,1005.69
2019-05-06T00:56:59.610Z,1005.74
2019-05-06T00:57:59.594Z,1005.72
2019-05-06T00:58:59.589Z,1005.71
2019-05-06T00:59:59.575Z,1005.69
2019-05-06T01:00:59.601Z,1005.66
2019-05-06T01:01:59.566Z,1005.70
2019-05-06T01:02:59.545Z,1005.71
2019-05-06T01:03:59.546Z,1005.74
2019-05-06T01:04:59.531Z,1005.74
2019-05-06T01:05:59.514Z,1005.73
2019-05-06T01:06:59.498Z,1005.73
2019-05-06T01:07:59.519Z,1005.69
2019-05-06T01:08:59.491Z,1005.73
2019-05-06T01:09:59.470Z,1005.77
2019-05-06T01:10:59.459Z,1005.75
2019-05-06T01:11:59.443Z,1005.72
2019-05-06T01:12:59.431Z,1005.70
2019-05-06T01:13:59.436Z,1005.75
2019-05-06T01:14:59.450Z,1005.68
2019-05-06T01:15:59.404Z,1005.70
2019-05-06T01:16:59.386Z,1005.69
2019-05-06T01:17:59.382Z,1005.72
2019-05-06T01:18:59.381Z,1005.68
2019-05-06T01:19:59.366Z,1005.67
2019-05-06T01:20:59.355Z,1005.70
2019-05-06T01:21:59.338Z,1005.69
2019-05-06T01:22:59.335Z,1005.71
2019-05-06T01:23:59.315Z,1005.69
2019-05-06T01:24:59.299Z,1005.67
2019-05-06T01:25:59.313Z,1005.69
2019-05-06T01:26:59.303Z,1005.69
2019-05-06T01:27:59.267Z,1005.67
2019-05-06T01:28:59.259Z,1005.68
2019-05-06T01:29:59.275Z,1005.65
2019-05-06T01:30:59.238Z,1005.71
2019-05-06T01:31:59.267Z,1005.68
2019-05-06T01:32:59.211Z,1005.72
2019-05-06T01:33:59.206Z,1005.69
2019-05-06T01:34:59.206Z,1005.70
2019-05-06T01:35:59.178Z,1005.66
2019-05-06T01:36:59.178Z,1005.66
2019-05-06T01:37:59.190Z,1005.68
2019-05-06T01:38:59.149Z,1005.67
2019-05-06T01:39:59.146Z,1005.67
2019-05-06T01:40:59.126Z,1005.67
2019-05-06T01:41:59.111Z,1005.70
2019-05-06T01:42:59.098Z,1005.69
2019-05-06T01:43:59.111Z,1005.69
2019-05-06T01:44:59.080Z,1005.72
2019-05-06T01:45:59.070Z,1005.72
2019-05-06T01:46:59.059Z,1005.68
2019-05-06T01:47:59.042Z,1005.76
2019-05-06T01:48:59.046Z,1005.76
2019-05-06T01:49:59.042Z,1005.73
2019-05-06T01:50:59.026Z,1005.70
2019-05-06T01:51:59.003Z,1005.73
2019-05-06T01:52:58.990Z,1005.71
2019-05-06T01:53:58.978Z,1005.70
2019-05-06T01:54:58.970Z,1005.76
2019-05-06T01:55:58.971Z,1005.65
2019-05-06T01:56:58.974Z,1005.69
2019-05-06T01:57:58.938Z,1005.68
2019-05-06T01:58:58.923Z,1005.69
2019-05-06T01:59:58.914Z,1005.68
2019-05-06T02:00:58.898Z,1005.68
2019-05-06T02:02:01.125Z,1005.69
2019-05-06T02:02:58.886Z,1005.67
2019-05-06T02:03:58.887Z,1005.69
2019-05-06T02:04:58.863Z,1005.69
2019-05-06T02:05:58.854Z,1005.69
2019-05-06T02:06:58.834Z,1005.66
2019-05-06T02:07:58.828Z,1005.68
2019-05-06T02:08:58.811Z,1005.68
2019-05-06T02:09:58.822Z,1005.70
2019-05-06T02:10:58.790Z,1005.69
2019-05-06T02:11:58.783Z,1005.64
2019-05-06T02:12:58.784Z,1005.66
2019-05-06T02:13:58.758Z,1005.71
2019-05-06T02:14:58.742Z,1005.67
2019-05-06T02:15:58.747Z,1005.68
2019-05-06T02:16:58.730Z,1005.69
2019-05-06T02:17:58.730Z,1005.65
2019-05-06T02:18:58.706Z,1005.64
2019-05-06T02:19:58.698Z,1005.67
2019-05-06T02:20:58.682Z,1005.70
2019-05-06T02:21:58.706Z,1005.65
2019-05-06T02:22:58.674Z,1005.65
2019-05-06T02:23:58.650Z,1005.68
2019-05-06T02:24:58.646Z,1005.65
2019-05-06T02:25:58.626Z,1005.70
2019-05-06T02:26:58.627Z,1005.71
2019-05-06T02:27:58.619Z,1005.71
2019-05-06T02:28:58.594Z,1005.76
2019-05-06T02:29:58.586Z,1005.75
2019-05-06T02:30:58.571Z,1005.73
2019-05-06T02:32:15.762Z,1005.71
2019-05-06T02:32:59.562Z,1005.75
2019-05-06T02:33:58.539Z,1005.76
2019-05-06T02:34:58.528Z,1005.75
2019-05-06T02:35:58.513Z,1005.71
2019-05-06T02:36:58.508Z,1005.76
2019-05-06T02:37:58.519Z,1005.74
2019-05-06T02:38:58.502Z,1005.76
2019-05-06T02:39:58.478Z,1005.72
2019-05-06T02:40:58.459Z,1005.68
2019-05-06T02:41:58.459Z,1005.68
2019-05-06T02:42:58.438Z,1005.68
2019-05-06T02:43:58.422Z,1005.69
2019-05-06T02:44:58.446Z,1005.69
2019-05-06T02:45:58.407Z,1005.70
2019-05-06T02:46:58.404Z,1005.67
2019-05-06T02:47:58.383Z,1005.69
2019-05-06T02:48:58.368Z,1005.70
2019-05-06T02:49:58.359Z,1005.69
2019-05-06T02:50:58.374Z,1005.69
2019-05-06T02:51:58.338Z,1005.73
2019-05-06T02:52:58.331Z,1005.65
2019-05-06T02:53:58.342Z,1005.65
2019-05-06T02:54:58.308Z,1005.67
2019-05-06T02:55:58.306Z,1005.67
2019-05-06T02:56:58.317Z,1005.65
2019-05-06T02:57:58.272Z,1005.65
2019-05-06T02:58:58.259Z,1005.62
2019-05-06T02:59:58.250Z,1005.69
2019-05-06T03:00:58.234Z,1005.66
2019-05-06T03:01:58.246Z,1005.63
2019-05-06T03:02:58.238Z,1005.68
2019-05-06T03:03:58.219Z,1005.67
2019-05-06T03:04:58.195Z,1005.71
2019-05-06T03:05:58.181Z,1005.71
2019-05-06T03:06:58.175Z,1005.71
2019-05-06T03:07:58.179Z,1005.70
2019-05-06T03:08:58.150Z,1005.72
2019-05-06T03:09:58.140Z,1005.71
2019-05-06T03:10:58.130Z,1005.70
2019-05-06T03:11:58.126Z,1005.71
2019-05-06T03:12:58.112Z,1005.73
2019-05-06T03:13:58.103Z,1005.70
2019-05-06T03:14:58.103Z,1005.70
2019-05-06T03:15:58.074Z,1005.70
2019-05-06T03:16:58.081Z,1005.69
2019-05-06T03:17:58.051Z,1005.68
2019-05-06T03:18:58.054Z,1005.65
2019-05-06T03:19:58.030Z,1005.66
2019-05-06T03:20:58.019Z,1005.62
2019-05-06T03:21:58.008Z,1005.62
2019-05-06T03:22:57.998Z,1005.62
2019-05-06T03:23:58.034Z,1005.67
2019-05-06T03:24:57.996Z,1005.66
2019-05-06T03:25:57.963Z,1005.66
2019-05-06T03:26:57.947Z,1005.64
2019-05-06T03:27:57.955Z,1005.65
2019-05-06T03:28:57.933Z,1005.68
2019-05-06T03:29:57.914Z,1005.67
2019-05-06T03:30:57.927Z,1005.69
2019-05-06T03:31:58.030Z,1005.67
2019-05-06T03:33:31.403Z,1005.62
2019-05-06T03:34:21.765Z,1005.66
2019-05-06T03:35:16.586Z,1005.65
2019-05-06T03:36:13.783Z,1005.64
2019-05-06T03:36:58.882Z,1005.62
2019-05-06T03:37:57.851Z,1005.67
2019-05-06T03:38:57.851Z,1005.66
2019-05-06T03:39:57.820Z,1005.59
2019-05-06T03:40:57.810Z,1005.60
2019-05-06T03:41:57.786Z,1005.62
2019-05-06T03:42:57.770Z,1005.63
2019-05-06T03:43:57.779Z,1005.63
2019-05-06T03:44:57.758Z,1005.61
2019-05-06T03:45:57.742Z,1005.63
2019-05-06T03:46:57.739Z,1005.65
2019-05-06T03:47:57.733Z,1005.64
2019-05-06T03:48:57.715Z,1005.68
2019-05-06T03:49:57.727Z,1005.62
2019-05-06T03:50:57.687Z,1005.62
2019-05-06T03:51:57.699Z,1005.62
2019-05-06T03:52:57.698Z,1005.63
2019-05-06T03:53:57.661Z,1005.63
2019-05-06T03:54:57.647Z,1005.66
2019-05-06T03:55:57.661Z,1005.65
2019-05-06T03:56:57.626Z,1005.72
2019-05-06T03:57:57.615Z,1005.65
2019-05-06T03:58:57.619Z,1005.64
2019-05-06T03:59:57.588Z,1005.66
2019-05-06T04:00:57.571Z,1005.65
2019-05-06T04:01:57.595Z,1005.62
2019-05-06T04:02:57.558Z,1005.61
2019-05-06T04:03:57.638Z,1005.64
2019-05-06T04:04:57.553Z,1005.62
2019-05-06T04:05:57.538Z,1005.67
2019-05-06T04:06:57.514Z,1005.63
2019-05-06T04:07:57.537Z,1005.63
2019-05-06T04:08:57.483Z,1005.64
2019-05-06T04:09:57.491Z,1005.64
2019-05-06T04:10:57.470Z,1005.60
2019-05-06T04:11:57.458Z,1005.64
2019-05-06T04:12:57.438Z,1005.63
2019-05-06T04:13:57.450Z,1005.60
2019-05-06T04:14:57.434Z,1005.62
2019-05-06T04:15:57.410Z,1005.63
2019-05-06T04:16:57.423Z,1005.65
2019-05-06T04:17:57.410Z,1005.63
2019-05-06T04:18:57.374Z,1005.64
2019-05-06T04:19:57.386Z,1005.65
2019-05-06T04:20:57.357Z,1005.62
2019-05-06T04:21:57.370Z,1005.58
2019-05-06T04:22:57.329Z,1005.59
2019-05-06T04:23:57.341Z,1005.61
2019-05-06T04:24:57.310Z,1005.58
2019-05-06T04:25:57.294Z,1005.59
2019-05-06T04:26:57.288Z,1005.63
2019-05-06T04:27:57.309Z,1005.62
2019-05-06T04:28:57.268Z,1005.63
2019-05-06T04:29:57.271Z,1005.63
2019-05-06T04:30:57.247Z,1005.62
2019-05-06T04:31:57.228Z,1005.58
2019-05-06T04:32:57.248Z,1005.60
2019-05-06T04:34:10.100Z,1005.64
2019-05-06T04:34:58.212Z,1005.61
2019-05-06T04:35:57.191Z,1005.62
2019-05-06T04:36:57.198Z,1005.62
2019-05-06T04:37:57.182Z,1005.63
2019-05-06T04:38:57.162Z,1005.66
2019-05-06T04:39:57.142Z,1005.68
2019-05-06T04:40:57.135Z,1005.61
2019-05-06T04:41:57.131Z,1005.68
2019-05-06T04:42:57.128Z,1005.67
2019-05-06T04:43:57.108Z,1005.70
2019-05-06T04:44:57.087Z,1005.67
2019-05-06T04:45:57.074Z,1005.66
2019-05-06T04:46:57.075Z,1005.69
2019-05-06T04:47:57.055Z,1005.65
2019-05-06T04:48:57.054Z,1005.67
2019-05-06T04:49:57.044Z,1005.68
2019-05-06T04:50:57.039Z,1005.70
2019-05-06T04:51:57.010Z,1005.70
2019-05-06T04:52:56.998Z,1005.67
2019-05-06T04:53:56.998Z,1005.69
2019-05-06T04:54:56.982Z,1005.74
2019-05-06T04:55:56.963Z,1005.77
2019-05-06T04:56:56.990Z,1005.73
2019-05-06T04:57:56.954Z,1005.80
2019-05-06T04:58:56.951Z,1005.74
2019-05-06T04:59:56.918Z,1005.76
2019-05-06T05:00:56.915Z,1005.72
2019-05-06T05:01:56.909Z,1005.76
2019-05-06T05:02:56.894Z,1005.76
2019-05-06T05:03:56.898Z,1005.73
2019-05-06T05:04:56.883Z,1005.77
2019-05-06T05:05:56.860Z,1005.72
2019-05-06T05:06:56.846Z,1005.75
2019-05-06T05:07:56.838Z,1005.74
2019-05-06T05:08:56.823Z,1005.77
2019-05-06T05:09:56.812Z,1005.73
2019-05-06T05:10:56.812Z,1005.74
2019-05-06T05:11:56.787Z,1005.78
2019-05-06T05:12:56.776Z,1005.74
2019-05-06T05:13:56.806Z,1005.74
2019-05-06T05:14:56.763Z,1005.76
2019-05-06T05:15:56.762Z,1005.79
2019-05-06T05:16:56.737Z,1005.83
2019-05-06T05:17:56.718Z,1005.79
2019-05-06T05:18:56.710Z,1005.86
2019-05-06T05:19:56.730Z,1005.80
2019-05-06T05:20:56.734Z,1005.84
2019-05-06T05:21:56.702Z,1005.80
2019-05-06T05:22:56.670Z,1005.84
2019-05-06T05:23:56.658Z,1005.80
2019-05-06T05:24:56.646Z,1005.78
2019-05-06T05:25:56.630Z,1005.82
2019-05-06T05:26:56.633Z,1005.79
2019-05-06T05:27:56.646Z,1005.77
2019-05-06T05:28:56.608Z,1005.81
2019-05-06T05:29:56.590Z,1005.83
2019-05-06T05:30:56.580Z,1005.81
2019-05-06T05:31:56.568Z,1005.82
2019-05-06T05:32:56.558Z,1005.84
2019-05-06T05:33:56.562Z,1005.82
2019-05-06T05:34:56.533Z,1005.83
2019-05-06T05:35:56.518Z,1005.79
2019-05-06T05:36:56.514Z,1005.86
2019-05-06T05:37:56.498Z,1005.87
2019-05-06T05:38:56.524Z,1005.88
2019-05-06T05:39:56.506Z,1005.84
2019-05-06T05:40:56.461Z,1005.92
2019-05-06T05:41:56.477Z,1005.92
2019-05-06T05:42:56.446Z,1005.86
2019-05-06T05:43:56.435Z,1005.86
2019-05-06T05:44:56.422Z,1005.89
2019-05-06T05:45:56.414Z,1005.88
2019-05-06T05:46:56.406Z,1005.86
2019-05-06T05:47:56.410Z,1005.92
2019-05-06T05:48:56.441Z,1005.85
2019-05-06T05:49:56.391Z,1005.84
2019-05-06T05:50:56.358Z,1005.81
2019-05-06T05:51:56.345Z,1005.76
2019-05-06T05:52:56.341Z,1005.83
2019-05-06T05:53:56.341Z,1005.82
2019-05-06T05:54:56.346Z,1005.81
2019-05-06T05:55:56.297Z,1005.84
2019-05-06T05:56:56.286Z,1005.83
2019-05-06T05:57:56.326Z,1005.82
2019-05-06T05:58:56.271Z,1005.84
2019-05-06T05:59:56.258Z,1005.91
2019-05-06T06:00:56.274Z,1005.92
2019-05-06T06:01:56.238Z,1005.92
2019-05-06T06:02:56.226Z,1005.87
2019-05-06T06:03:56.214Z,1005.89
2019-05-06T06:04:57.681Z,1005.94
2019-05-06T06:05:56.198Z,1005.87
2019-05-06T06:06:56.198Z,1005.91
2019-05-06T06:07:56.167Z,1005.85
2019-05-06T06:08:56.158Z,1005.90
2019-05-06T06:09:56.146Z,1005.88
2019-05-06T06:10:56.134Z,1005.86
2019-05-06T06:11:56.210Z,1005.83
2019-05-06T06:12:56.123Z,1005.81
2019-05-06T06:13:56.103Z,1005.80
2019-05-06T06:14:56.502Z,1005.82
2019-05-06T06:15:56.129Z,1005.84
2019-05-06T06:16:56.078Z,1005.83
2019-05-06T06:17:56.074Z,1005.80
2019-05-06T06:18:56.042Z,1005.80
2019-05-06T06:19:56.075Z,1005.79
2019-05-06T06:20:56.022Z,1005.79
2019-05-06T06:21:56.014Z,1005.81
2019-05-06T06:22:56.001Z,1005.81
2019-05-06T06:23:55.996Z,1005.80
2019-05-06T06:24:55.978Z,1005.82
2019-05-06T06:25:56.069Z,1005.79
2019-05-06T06:26:55.962Z,1005.81
2019-05-06T06:27:55.945Z,1005.74
2019-05-06T06:28:55.950Z,1005.80
2019-05-06T06:29:55.930Z,1005.81
2019-05-06T06:30:55.914Z,1005.80
2019-05-06T06:31:55.946Z,1005.78
2019-05-06T06:32:55.886Z,1005.81
2019-05-06T06:33:55.878Z,1005.82
2019-05-06T06:35:07.474Z,1005.83
2019-05-06T06:35:56.854Z,1005.82
2019-05-06T06:36:55.854Z,1005.90
2019-05-06T06:37:55.854Z,1005.86
2019-05-06T06:38:55.834Z,1005.86
2019-05-06T06:39:55.810Z,1005.88
2019-05-06T06:40:55.825Z,1005.87
2019-05-06T06:41:55.786Z,1005.87
2019-05-06T06:42:55.782Z,1005.85
2019-05-06T06:43:55.792Z,1005.89
2019-05-06T06:44:55.758Z,1005.86
2019-05-06T06:45:55.742Z,1005.87
2019-05-06T06:46:55.742Z,1005.87
2019-05-06T06:47:55.737Z,1005.91
2019-05-06T06:48:55.721Z,1005.89
2019-05-06T06:49:55.725Z,1005.87
2019-05-06T06:50:55.742Z,1005.89
2019-05-06T06:51:55.694Z,1005.84
2019-05-06T06:52:55.670Z,1005.85
2019-05-06T06:53:55.658Z,1005.87
2019-05-06T06:54:55.658Z,1005.87
2019-05-06T06:55:55.662Z,1005.90
2019-05-06T06:57:05.622Z,1005.87
2019-05-06T06:57:56.610Z,1005.85
2019-05-06T06:58:55.598Z,1005.93
2019-05-06T06:59:55.594Z,1005.96
2019-05-06T07:00:55.582Z,1006.00
2019-05-06T07:01:55.610Z,1005.91
2019-05-06T07:02:55.553Z,1005.95
2019-05-06T07:03:55.545Z,1005.90
2019-05-06T07:04:55.533Z,1005.90
2019-05-06T07:05:55.522Z,1005.92
2019-05-06T07:06:55.514Z,1005.88
2019-05-06T07:07:55.594Z,1005.90
2019-05-06T07:08:55.489Z,1005.90
2019-05-06T07:09:55.482Z,1005.90
2019-05-06T07:10:55.468Z,1005.87
2019-05-06T07:11:55.462Z,1005.88
2019-05-06T07:12:55.471Z,1005.93
2019-05-06T07:13:55.431Z,1005.96
2019-05-06T07:14:55.430Z,1005.93
2019-05-06T07:15:55.422Z,1005.93
2019-05-06T07:16:55.394Z,1005.91
2019-05-06T07:17:55.390Z,1005.97
2019-05-06T07:18:55.392Z,1005.95
2019-05-06T07:19:55.366Z,1005.93
2019-05-06T07:20:55.379Z,1005.94
2019-05-06T07:21:55.394Z,1005.91
2019-05-06T07:22:55.338Z,1005.92
2019-05-06T07:23:55.326Z,1005.94
2019-05-06T07:24:55.322Z,1005.96
2019-05-06T07:25:55.298Z,1005.94
2019-05-06T07:26:55.306Z,1005.94
2019-05-06T07:27:55.294Z,1005.93
2019-05-06T07:28:55.269Z,1005.96
2019-05-06T07:29:55.253Z,1005.92
2019-05-06T07:30:55.242Z,1005.94
2019-05-06T07:31:55.226Z,1006.01
2019-05-06T07:32:55.241Z,1006.00
2019-05-06T07:33:55.214Z,1005.99
2019-05-06T07:34:55.205Z,1006.01
2019-05-06T07:35:55.190Z,1006.07
2019-05-06T07:36:55.195Z,1006.03
2019-05-06T07:37:55.165Z,1006.00
2019-05-06T07:38:55.177Z,1005.95
2019-05-06T07:39:55.138Z,1006.01
2019-05-06T07:40:55.154Z,1006.02
2019-05-06T07:41:55.118Z,1005.95
2019-05-06T07:42:55.131Z,1005.98
2019-05-06T07:43:55.098Z,1006.01
2019-05-06T07:44:55.093Z,1006.00
2019-05-06T07:45:55.098Z,1006.03
2019-05-06T07:46:55.062Z,1006.02
2019-05-06T07:47:55.054Z,1005.99
2019-05-06T07:48:55.049Z,1005.98
2019-05-06T07:49:55.033Z,1005.96
2019-05-06T07:50:55.014Z,1005.94
2019-05-06T07:51:55.029Z,1005.97
2019-05-06T07:52:54.994Z,1005.96
2019-05-06T07:53:54.986Z,1005.91
2019-05-06T07:54:54.970Z,1005.94
2019-05-06T07:55:55.014Z,1005.94
2019-05-06T07:56:54.957Z,1005.92
2019-05-06T07:57:54.958Z,1005.91
2019-05-06T07:58:54.925Z,1005.89
2019-05-06T07:59:54.925Z,1005.88
2019-05-06T08:00:54.902Z,1005.89
2019-05-06T08:01:54.897Z,1005.91
2019-05-06T08:02:54.894Z,1005.93
2019-05-06T08:03:54.897Z,1005.87
2019-05-06T08:04:54.867Z,1005.91
2019-05-06T08:05:58.580Z,1005.91
2019-05-06T08:06:54.841Z,1005.90
2019-05-06T08:07:55.242Z,1005.95
2019-05-06T08:08:54.849Z,1005.94
2019-05-06T08:09:54.801Z,1005.91
2019-05-06T08:10:54.797Z,1005.86
2019-05-06T08:11:54.810Z,1005.91
2019-05-06T08:12:54.778Z,1005.91
2019-05-06T08:13:54.758Z,1005.92
2019-05-06T08:14:54.750Z,1005.96
2019-05-06T08:15:54.756Z,1005.86
2019-05-06T08:16:54.745Z,1005.87
2019-05-06T08:17:54.774Z,1005.89
2019-05-06T08:18:54.707Z,1005.79
2019-05-06T08:19:54.719Z,1005.89
2019-05-06T08:20:54.698Z,1005.81
2019-05-06T08:21:54.675Z,1005.81
2019-05-06T08:22:56.511Z,1005.81
2019-05-06T08:23:54.649Z,1005.89
2019-05-06T08:24:54.637Z,1005.84
2019-05-06T08:26:08.309Z,1005.83
2019-05-06T08:26:55.630Z,1005.88
2019-05-06T08:27:54.601Z,1005.82
2019-05-06T08:28:54.613Z,1005.81
2019-05-06T08:29:54.581Z,1005.86
2019-05-06T08:30:54.610Z,1005.88
2019-05-06T08:31:54.562Z,1005.91
2019-05-06T08:32:54.546Z,1005.92
2019-05-06T08:33:54.537Z,1005.83
2019-05-06T08:34:54.541Z,1005.80
2019-05-06T08:36:07.557Z,1005.88
2019-05-06T08:36:55.509Z,1005.83
2019-05-06T08:37:54.497Z,1005.80
2019-05-06T08:38:54.491Z,1005.83
2019-05-06T08:39:54.508Z,1005.93
2019-05-06T08:40:54.474Z,1005.87
2019-05-06T08:41:54.450Z,1005.83
2019-05-06T08:42:54.438Z,1005.85
2019-05-06T08:43:54.426Z,1005.88
2019-05-06T08:44:54.432Z,1005.88
2019-05-06T08:45:54.409Z,1005.84
2019-05-06T08:46:54.407Z,1005.84
2019-05-06T08:47:54.385Z,1005.84
2019-05-06T08:48:54.372Z,1005.80
2019-05-06T08:49:54.365Z,1005.89
2019-05-06T08:50:54.353Z,1005.82
2019-05-06T08:51:54.348Z,1005.83
2019-05-06T08:52:54.334Z,1005.88
2019-05-06T08:53:54.313Z,1005.87
2019-05-06T08:54:54.305Z,1005.84
2019-05-06T08:55:54.301Z,1005.83
2019-05-06T08:56:54.362Z,1005.82
2019-05-06T08:57:54.269Z,1005.81
2019-05-06T08:58:54.261Z,1005.82
2019-05-06T08:59:54.249Z,1005.75
2019-05-06T09:00:57.382Z,1005.72
2019-05-06T09:01:54.226Z,1005.72
2019-05-06T09:02:54.229Z,1005.75
2019-05-06T09:04:08.328Z,1005.72
2019-05-06T09:04:55.193Z,1005.70
2019-05-06T09:05:54.187Z,1005.65
2019-05-06T09:06:54.169Z,1005.65
2019-05-06T09:07:54.161Z,1005.58
2019-05-06T09:08:56.861Z,1005.62
2019-05-06T09:09:54.169Z,1005.58
2019-05-06T09:10:54.125Z,1005.59
2019-05-06T09:11:54.116Z,1005.64
2019-05-06T09:12:54.149Z,1005.57
2019-05-06T09:13:54.093Z,1005.42
2019-05-06T09:14:54.105Z,1005.52
2019-05-06T09:15:54.109Z,1005.49
2019-05-06T09:16:54.304Z,1005.52
2019-05-06T09:17:54.085Z,1005.47
2019-05-06T09:18:54.039Z,1005.52
2019-05-06T09:19:54.034Z,1005.52
2019-05-06T09:20:54.028Z,1005.57
2019-05-06T09:21:54.011Z,1005.54
2019-05-06T09:22:53.990Z,1005.47
2019-05-06T09:23:53.978Z,1005.51
2019-05-06T09:24:53.970Z,1005.54
2019-05-06T09:25:53.965Z,1005.47
2019-05-06T09:26:53.978Z,1005.55
2019-05-06T09:27:53.937Z,1005.49
2019-05-06T09:28:53.937Z,1005.57
2019-05-06T09:29:53.941Z,1005.50
2019-05-06T09:30:53.901Z,1005.47
2019-05-06T09:31:53.889Z,1005.53
2019-05-06T09:32:53.889Z,1005.57
2019-05-06T09:33:53.885Z,1005.50
2019-05-06T09:34:53.869Z,1005.56
2019-05-06T09:35:53.846Z,1005.57
2019-05-06T09:36:54.938Z,1005.49
2019-05-06T09:37:53.827Z,1005.51
2019-05-06T09:38:53.829Z,1005.56
2019-05-06T09:39:53.852Z,1005.52
2019-05-06T09:40:53.789Z,1005.50
2019-05-06T09:41:57.710Z,1005.42
2019-05-06T09:42:53.765Z,1005.48
2019-05-06T09:43:53.760Z,1005.39
2019-05-06T09:44:54.446Z,1005.44
2019-05-06T09:45:53.813Z,1005.39
2019-05-06T09:46:53.733Z,1005.41
2019-05-06T09:47:53.713Z,1005.35
2019-05-06T09:48:53.701Z,1005.38
2019-05-06T09:49:53.693Z,1005.38
2019-05-06T09:50:53.954Z,1005.45
2019-05-06T09:51:53.729Z,1005.41
2019-05-06T09:52:53.658Z,1005.41
2019-05-06T09:53:53.649Z,1005.49
2019-05-06T09:54:53.772Z,1005.48
2019-05-06T09:55:53.641Z,1005.38
2019-05-06T09:56:53.649Z,1005.35
2019-05-06T09:57:53.601Z,1005.39
2019-05-06T09:58:53.588Z,1005.33
2019-05-06T09:59:53.581Z,1005.39
2019-05-06T10:00:53.606Z,1005.37
2019-05-06T10:01:53.569Z,1005.36
2019-05-06T10:02:53.546Z,1005.29
2019-05-06T10:03:53.553Z,1005.35
2019-05-06T10:04:53.529Z,1005.38
2019-05-06T10:05:53.513Z,1005.29
2019-05-06T10:06:59.040Z,1005.27
2019-05-06T10:07:54.497Z,1005.29
2019-05-06T10:08:53.493Z,1005.28
2019-05-06T10:09:53.471Z,1005.38
2019-05-06T10:10:59.348Z,1005.31
2019-05-06T10:11:54.461Z,1005.35
2019-05-06T10:12:53.441Z,1005.35
2019-05-06T10:13:53.421Z,1005.29
2019-05-06T10:14:53.467Z,1005.32
2019-05-06T10:15:53.398Z,1005.32
2019-05-06T10:16:53.385Z,1005.31
2019-05-06T10:17:53.377Z,1005.34
2019-05-06T10:18:53.421Z,1005.40
2019-05-06T10:19:53.357Z,1005.37
2019-05-06T10:20:53.345Z,1005.40
2019-05-06T10:21:53.341Z,1005.38
2019-05-06T10:22:53.321Z,1005.32
2019-05-06T10:23:53.312Z,1005.39
2019-05-06T10:24:53.321Z,1005.44
2019-05-06T10:25:53.325Z,1005.40
2019-05-06T10:26:53.285Z,1005.41
2019-05-06T10:27:53.265Z,1005.33
2019-05-06T10:28:53.257Z,1005.34
2019-05-06T10:29:53.277Z,1005.29
2019-05-06T10:30:53.249Z,1005.23
2019-05-06T10:31:53.221Z,1005.31
2019-05-06T10:32:53.237Z,1005.33
2019-05-06T10:33:53.240Z,1005.39
2019-05-06T10:34:53.189Z,1005.30
2019-05-06T10:35:53.193Z,1005.28
2019-05-06T10:36:53.404Z,1005.28
2019-05-06T10:37:53.244Z,1005.31
2019-05-06T10:38:53.149Z,1005.30
2019-05-06T10:39:53.181Z,1005.31
2019-05-06T10:41:02.118Z,1005.33
2019-05-06T10:41:54.141Z,1005.25
2019-05-06T10:42:53.097Z,1005.21
2019-05-06T10:43:53.150Z,1005.29
2019-05-06T10:44:53.243Z,1005.26
2019-05-06T10:45:53.089Z,1005.26
2019-05-06T10:46:53.069Z,1005.28
2019-05-06T10:47:53.825Z,1005.24
2019-05-06T10:48:53.196Z,1005.24
2019-05-06T10:49:53.122Z,1005.24
2019-05-06T10:50:53.012Z,1005.14
2019-05-06T10:51:53.113Z,1005.05
2019-05-06T10:52:52.981Z,1005.14
2019-05-06T10:53:52.971Z,1005.08
2019-05-06T10:54:53.007Z,1005.06
2019-05-06T10:55:53.578Z,1005.09
2019-05-06T10:56:56.981Z,1005.02
2019-05-06T10:57:53.215Z,1005.12
2019-05-06T10:58:52.944Z,1005.13
2019-05-06T10:59:52.947Z,1005.07
2019-05-06T11:00:53.022Z,1005.08
2019-05-06T11:01:52.885Z,1005.05
2019-05-06T11:02:52.878Z,1005.09
2019-05-06T11:03:52.869Z,1004.99
2019-05-06T11:04:53.147Z,1004.99
2019-05-06T11:05:53.619Z,1004.98
2019-05-06T11:06:52.889Z,1005.00
2019-05-06T11:07:52.817Z,1004.95
2019-05-06T11:08:52.805Z,1005.00
2019-05-06T11:09:53.388Z,1004.98
2019-05-06T11:10:53.580Z,1004.95
2019-05-06T11:11:52.789Z,1005.04
2019-05-06T11:12:52.762Z,1005.01
2019-05-06T11:13:52.746Z,1005.03
2019-05-06T11:14:53.205Z,1005.00
2019-05-06T11:15:55.412Z,1004.98
2019-05-06T11:16:52.741Z,1004.97
2019-05-06T11:17:52.729Z,1005.12
2019-05-06T11:18:53.488Z,1005.00
2019-05-06T11:19:53.299Z,1004.89
2019-05-06T11:20:56.161Z,1004.90
2019-05-06T11:21:53.182Z,1004.96
2019-05-06T11:22:52.921Z,1004.96
2019-05-06T11:23:52.837Z,1005.00
2019-05-06T11:24:52.622Z,1004.95
2019-05-06T11:25:52.836Z,1004.87
2019-05-06T11:26:53.408Z,1004.86
2019-05-06T11:27:52.920Z,1004.79
2019-05-06T11:28:52.593Z,1004.84
2019-05-06T11:29:53.155Z,1004.83
2019-05-06T11:30:52.948Z,1004.91
2019-05-06T11:31:54.240Z,1004.88
2019-05-06T11:32:54.725Z,1004.90
2019-05-06T11:33:52.665Z,1004.86
2019-05-06T11:34:52.714Z,1004.87
2019-05-06T11:35:52.919Z,1004.81
2019-05-06T11:36:52.654Z,1004.85
2019-05-06T11:37:54.301Z,1004.88
2019-05-06T11:38:52.473Z,1004.84
2019-05-06T11:39:52.982Z,1004.82
2019-05-06T11:40:53.169Z,1004.79
2019-05-06T11:42:06.369Z,1004.84
2019-05-06T11:42:53.425Z,1004.85
2019-05-06T11:43:52.425Z,1004.87
2019-05-06T11:44:53.153Z,1004.84
2019-05-06T11:45:52.413Z,1004.79
2019-05-06T11:46:52.441Z,1004.83
2019-05-06T11:47:55.884Z,1004.72
2019-05-06T11:48:52.423Z,1004.75
2019-05-06T11:49:55.861Z,1004.77
2019-05-06T11:50:52.373Z,1004.77
2019-05-06T11:51:52.333Z,1004.75
2019-05-06T11:52:53.007Z,1004.69
2019-05-06T11:53:54.175Z,1004.76
2019-05-06T11:54:52.846Z,1004.77
2019-05-06T11:55:54.582Z,1004.69
2019-05-06T11:56:57.990Z,1004.72
2019-05-06T11:57:53.265Z,1004.61
2019-05-06T11:58:53.174Z,1004.65
2019-05-06T11:59:52.759Z,1004.66
2019-05-06T12:00:52.687Z,1004.66
2019-05-06T12:01:53.376Z,1004.72
2019-05-06T12:02:53.333Z,1004.71
2019-05-06T12:03:52.281Z,1004.74
2019-05-06T12:04:52.781Z,1004.73